createdAt,value
2018-12-05T00:00:04.431Z,0
2018-12-05T00:01:05.824Z,0
2018-12-05T00:02:07.361Z,0
2018-12-05T00:03:08.753Z,0
2018-12-05T00:04:10.146Z,0
2018-12-05T00:05:11.667Z,0
2018-12-05T00:06:13.062Z,0
2018-12-05T00:07:14.456Z,0
2018-12-05T00:08:16.000Z,0
2018-12-05T00:09:17.335Z,0
2018-12-05T00:10:18.872Z,0
2018-12-05T00:11:20.274Z,0
2018-12-05T00:12:21.667Z,0
2018-12-05T00:13:23.194Z,0
2018-12-05T00:14:24.584Z,0
2018-12-05T00:15:25.981Z,0
2018-12-05T00:16:27.514Z,0
2018-12-05T00:17:28.906Z,0
2018-12-05T00:18:30.296Z,0
2018-12-05T00:19:31.839Z,0
2018-12-05T00:20:33.232Z,0
2018-12-05T00:21:34.625Z,0
2018-12-05T00:22:36.155Z,0
2018-12-05T00:23:37.545Z,0
2018-12-05T00:24:39.039Z,0
2018-12-05T00:25:40.428Z,0
2018-12-05T00:26:41.916Z,0
2018-12-05T00:27:43.310Z,0
2018-12-05T00:28:44.801Z,0
2018-12-05T00:29:46.194Z,0
2018-12-05T00:30:47.679Z,0
2018-12-05T00:31:49.096Z,0
2018-12-05T00:32:50.765Z,0
2018-12-05T00:33:52.158Z,0
2018-12-05T00:34:53.646Z,0
2018-12-05T00:35:55.043Z,0
2018-12-05T00:36:56.527Z,0
2018-12-05T00:37:57.919Z,0
2018-12-05T00:38:59.405Z,0
2018-12-05T00:40:01.193Z,0
2018-12-05T00:41:02.697Z,0
2018-12-05T00:42:04.096Z,0
2018-12-05T00:43:05.794Z,0
2018-12-05T00:44:07.200Z,0
2018-12-05T00:45:08.900Z,0
2018-12-05T00:46:10.290Z,0
2018-12-05T00:47:12.063Z,0
2018-12-05T00:48:13.600Z,0
2018-12-05T00:49:14.992Z,0
2018-12-05T00:50:16.386Z,0
2018-12-05T00:51:17.922Z,0
2018-12-05T00:52:19.314Z,0
2018-12-05T00:53:20.706Z,0
2018-12-05T00:54:22.239Z,0
2018-12-05T00:55:23.636Z,0
2018-12-05T00:56:25.047Z,0
2018-12-05T00:57:26.561Z,0
2018-12-05T00:58:27.957Z,0
2018-12-05T00:59:29.438Z,0
2018-12-05T01:00:30.784Z,0
2018-12-05T01:01:32.403Z,0
2018-12-05T01:02:33.795Z,0
2018-12-05T01:03:35.409Z,0
2018-12-05T01:04:36.803Z,0
2018-12-05T01:05:38.291Z,0
2018-12-05T01:06:39.681Z,0
2018-12-05T01:07:41.171Z,0
2018-12-05T01:08:42.577Z,0
2018-12-05T01:09:44.054Z,0
2018-12-05T01:10:45.452Z,0
2018-12-05T01:11:46.933Z,0
2018-12-05T01:12:48.329Z,0
2018-12-05T01:13:49.832Z,0
2018-12-05T01:14:51.222Z,0
2018-12-05T01:15:52.898Z,0
2018-12-05T01:16:54.294Z,0
2018-12-05T01:17:55.687Z,0
2018-12-05T01:18:57.227Z,0
2018-12-05T01:19:58.618Z,0
2018-12-05T01:21:00.035Z,0
2018-12-05T01:22:01.539Z,0
2018-12-05T01:23:02.935Z,0
2018-12-05T01:24:04.332Z,0
2018-12-05T01:25:05.864Z,0
2018-12-05T01:26:07.272Z,0
2018-12-05T01:27:08.677Z,0
2018-12-05T01:28:10.183Z,0
2018-12-05T01:29:11.586Z,0
2018-12-05T01:30:12.980Z,0
2018-12-05T01:31:14.509Z,0
2018-12-05T01:32:15.900Z,0
2018-12-05T01:33:17.296Z,0
2018-12-05T01:34:18.828Z,0
2018-12-05T01:35:20.219Z,0
2018-12-05T01:36:21.613Z,0
2018-12-05T01:37:23.151Z,0
2018-12-05T01:38:24.545Z,0
2018-12-05T01:39:25.935Z,0
2018-12-05T01:40:27.475Z,0
2018-12-05T01:41:29.249Z,0
2018-12-05T01:42:30.637Z,0
2018-12-05T01:43:32.206Z,0
2018-12-05T01:44:33.598Z,0
2018-12-05T01:45:35.109Z,0
2018-12-05T01:46:36.499Z,0
2018-12-05T01:47:38.550Z,0
2018-12-05T01:48:39.966Z,0
2018-12-05T01:49:41.461Z,0
2018-12-05T01:50:42.855Z,0
2018-12-05T01:51:44.358Z,0
2018-12-05T01:52:45.749Z,0
2018-12-05T01:53:47.428Z,0
2018-12-05T01:54:48.823Z,0
2018-12-05T01:55:50.311Z,0
2018-12-05T01:56:52.148Z,0
2018-12-05T01:57:53.994Z,0
2018-12-05T01:58:55.387Z,0
2018-12-05T01:59:56.891Z,0
2018-12-05T02:00:58.279Z,0
2018-12-05T02:01:59.772Z,0
2018-12-05T02:03:01.173Z,0
2018-12-05T02:04:02.653Z,0
2018-12-05T02:05:04.045Z,0
2018-12-05T02:06:05.531Z,0
2018-12-05T02:07:06.924Z,0
2018-12-05T02:08:08.321Z,0
2018-12-05T02:09:09.853Z,0
2018-12-05T02:10:11.249Z,0
2018-12-05T02:11:13.859Z,0
2018-12-05T02:12:15.402Z,0
2018-12-05T02:13:16.797Z,0
2018-12-05T02:14:18.189Z,0
2018-12-05T02:15:19.724Z,0
2018-12-05T02:16:21.119Z,0
2018-12-05T02:17:22.514Z,0
2018-12-05T02:18:24.045Z,0
2018-12-05T02:19:25.444Z,0
2018-12-05T02:20:26.928Z,0
2018-12-05T02:21:28.321Z,0
2018-12-05T02:22:29.807Z,0
2018-12-05T02:23:31.200Z,0
2018-12-05T02:24:32.687Z,0
2018-12-05T02:25:34.083Z,0
2018-12-05T02:26:35.569Z,0
2018-12-05T02:27:36.961Z,0
2018-12-05T02:28:38.355Z,0
2018-12-05T02:29:39.891Z,0
2018-12-05T02:30:41.285Z,0
2018-12-05T02:31:42.677Z,0
2018-12-05T02:32:44.216Z,0
2018-12-05T02:33:45.605Z,0
2018-12-05T02:34:46.996Z,0
2018-12-05T02:35:48.532Z,0
2018-12-05T02:36:49.932Z,0
2018-12-05T02:37:51.340Z,0
2018-12-05T02:38:53.230Z,0
2018-12-05T02:39:54.623Z,0
2018-12-05T02:40:56.020Z,0
2018-12-05T02:41:57.583Z,0
2018-12-05T02:42:59.368Z,0
2018-12-05T02:44:00.764Z,0
2018-12-05T02:45:02.379Z,0
2018-12-05T02:46:03.713Z,0
2018-12-05T02:47:05.104Z,0
2018-12-05T02:48:06.637Z,0
2018-12-05T02:49:08.033Z,0
2018-12-05T02:50:09.423Z,0
2018-12-05T02:51:10.958Z,0
2018-12-05T02:52:12.352Z,0
2018-12-05T02:53:13.746Z,0
2018-12-05T02:54:15.278Z,0
2018-12-05T02:55:17.053Z,0
2018-12-05T02:56:18.452Z,0
2018-12-05T02:57:20.012Z,0
2018-12-05T02:58:21.405Z,0
2018-12-05T02:59:22.795Z,0
2018-12-05T03:00:24.710Z,0
2018-12-05T03:01:26.101Z,0
2018-12-05T03:02:27.498Z,0
2018-12-05T03:03:29.062Z,0
2018-12-05T03:04:30.455Z,0
2018-12-05T03:05:31.847Z,0
2018-12-05T03:06:33.384Z,0
2018-12-05T03:07:34.774Z,0
2018-12-05T03:08:36.170Z,0
2018-12-05T03:09:37.707Z,0
2018-12-05T03:10:39.094Z,0
2018-12-05T03:11:40.586Z,0
2018-12-05T03:12:41.979Z,0
2018-12-05T03:13:43.376Z,0
2018-12-05T03:14:44.908Z,0
2018-12-05T03:15:46.368Z,0
2018-12-05T03:16:50.713Z,0
2018-12-05T03:17:52.302Z,0
2018-12-05T03:18:53.691Z,0
2018-12-05T03:19:55.089Z,0
2018-12-05T03:20:56.622Z,0
2018-12-05T03:21:58.011Z,0
2018-12-05T03:22:59.406Z,0
2018-12-05T03:24:00.945Z,0
2018-12-05T03:25:02.341Z,0
2018-12-05T03:26:03.740Z,0
2018-12-05T03:27:05.267Z,0
2018-12-05T03:28:06.656Z,0
2018-12-05T03:29:08.120Z,0
2018-12-05T03:30:09.791Z,0
2018-12-05T03:31:11.204Z,0
2018-12-05T03:32:12.896Z,0
2018-12-05T03:33:14.353Z,0
2018-12-05T03:34:15.625Z,0
2018-12-05T03:35:18.617Z,0
2018-12-05T03:36:18.554Z,0
2018-12-05T03:37:19.949Z,0
2018-12-05T03:38:21.520Z,0
2018-12-05T03:39:22.911Z,0
2018-12-05T03:40:24.306Z,0
2018-12-05T03:41:25.842Z,0
2018-12-05T03:42:27.244Z,0
2018-12-05T03:43:28.726Z,0
2018-12-05T03:44:30.157Z,0
2018-12-05T03:45:31.867Z,0
2018-12-05T03:46:33.204Z,0
2018-12-05T03:47:34.728Z,0
2018-12-05T03:48:36.121Z,0
2018-12-05T03:49:37.775Z,0
2018-12-05T03:50:39.170Z,0
2018-12-05T03:51:40.560Z,0
2018-12-05T03:52:42.096Z,0
2018-12-05T03:53:43.514Z,0
2018-12-05T03:54:44.907Z,0
2018-12-05T03:55:46.419Z,0
2018-12-05T03:56:47.810Z,0
2018-12-05T03:57:49.296Z,0
2018-12-05T03:58:50.690Z,0
2018-12-05T03:59:52.182Z,0
2018-12-05T04:00:53.579Z,0
2018-12-05T04:01:55.068Z,0
2018-12-05T04:02:56.461Z,0
2018-12-05T04:03:57.941Z,0
2018-12-05T04:04:59.336Z,0
2018-12-05T04:06:00.742Z,0
2018-12-05T04:07:02.273Z,0
2018-12-05T04:08:03.655Z,0
2018-12-05T04:09:05.095Z,0
2018-12-05T04:10:06.588Z,0
2018-12-05T04:11:08.005Z,0
2018-12-05T04:12:09.667Z,0
2018-12-05T04:13:11.059Z,0
2018-12-05T04:14:12.550Z,0
2018-12-05T04:15:13.940Z,0
2018-12-05T04:16:15.331Z,0
2018-12-05T04:17:16.873Z,0
2018-12-05T04:18:18.265Z,0
2018-12-05T04:19:19.658Z,0
2018-12-05T04:20:21.584Z,0
2018-12-05T04:21:22.997Z,0
2018-12-05T04:22:24.368Z,0
2018-12-05T04:23:25.925Z,0
2018-12-05T04:24:27.316Z,0
2018-12-05T04:25:28.709Z,0
2018-12-05T04:26:30.242Z,0
2018-12-05T04:27:31.638Z,0
2018-12-05T04:28:33.032Z,0
2018-12-05T04:29:34.568Z,0
2018-12-05T04:30:35.961Z,0
2018-12-05T04:31:37.448Z,0
2018-12-05T04:32:38.844Z,0
2018-12-05T04:33:40.332Z,0
2018-12-05T04:34:41.723Z,0
2018-12-05T04:35:43.115Z,0
2018-12-05T04:36:44.652Z,0
2018-12-05T04:37:46.048Z,0
2018-12-05T04:38:47.442Z,0
2018-12-05T04:39:48.972Z,0
2018-12-05T04:40:50.431Z,0
2018-12-05T04:41:52.072Z,0
2018-12-05T04:42:53.547Z,0
2018-12-05T04:43:54.985Z,0
2018-12-05T04:44:56.380Z,0
2018-12-05T04:45:58.022Z,0
2018-12-05T04:46:59.463Z,0
2018-12-05T04:48:01.119Z,0
2018-12-05T04:49:02.508Z,0
2018-12-05T04:50:03.896Z,0
2018-12-05T04:51:05.432Z,0
2018-12-05T04:52:07.503Z,0
2018-12-05T04:53:09.314Z,0
2018-12-05T04:54:10.981Z,0
2018-12-05T04:55:12.381Z,0
2018-12-05T04:56:13.767Z,0
2018-12-05T04:57:15.302Z,0
2018-12-05T04:58:16.695Z,0
2018-12-05T04:59:18.087Z,0
2018-12-05T05:00:19.623Z,0
2018-12-05T05:01:21.017Z,0
2018-12-05T05:02:22.507Z,0
2018-12-05T05:03:23.919Z,0
2018-12-05T05:04:25.385Z,0
2018-12-05T05:05:26.775Z,0
2018-12-05T05:06:28.266Z,0
2018-12-05T05:07:29.659Z,0
2018-12-05T05:08:31.147Z,0
2018-12-05T05:09:32.537Z,0
2018-12-05T05:10:33.947Z,0
2018-12-05T05:11:35.468Z,0
2018-12-05T05:12:36.858Z,0
2018-12-05T05:13:38.249Z,0
2018-12-05T05:14:39.791Z,0
2018-12-05T05:15:41.185Z,0
2018-12-05T05:16:43.342Z,0
2018-12-05T05:17:44.931Z,0
2018-12-05T05:18:46.321Z,0
2018-12-05T05:19:47.714Z,0
2018-12-05T05:20:49.256Z,0
2018-12-05T05:21:50.853Z,0
2018-12-05T05:22:52.248Z,0
2018-12-05T05:23:53.817Z,0
2018-12-05T05:24:55.169Z,0
2018-12-05T05:25:56.562Z,0
2018-12-05T05:26:58.101Z,0
2018-12-05T05:27:59.493Z,0
2018-12-05T05:29:00.980Z,0
2018-12-05T05:30:02.573Z,0
2018-12-05T05:31:03.973Z,0
2018-12-05T05:32:05.515Z,0
2018-12-05T05:33:06.908Z,0
2018-12-05T05:34:08.301Z,0
2018-12-05T05:35:09.827Z,0
2018-12-05T05:36:11.221Z,0
2018-12-05T05:37:13.035Z,0
2018-12-05T05:38:14.557Z,0
2018-12-05T05:39:16.332Z,0
2018-12-05T05:40:17.725Z,0
2018-12-05T05:41:19.286Z,0
2018-12-05T05:42:20.684Z,0
2018-12-05T05:43:22.078Z,0
2018-12-05T05:44:23.609Z,0
2018-12-05T05:45:25.003Z,0
2018-12-05T05:46:26.399Z,0
2018-12-05T05:47:27.930Z,0
2018-12-05T05:48:29.327Z,0
2018-12-05T05:49:30.721Z,0
2018-12-05T05:50:32.257Z,0
2018-12-05T05:51:33.645Z,0
2018-12-05T05:52:35.040Z,0
2018-12-05T05:53:36.575Z,0
2018-12-05T05:54:37.968Z,0
2018-12-05T05:55:39.359Z,0
2018-12-05T05:56:40.895Z,0
2018-12-05T05:57:42.290Z,0
2018-12-05T05:58:43.684Z,0
2018-12-05T05:59:45.215Z,0
2018-12-05T06:00:46.607Z,0
2018-12-05T06:01:48.001Z,0
2018-12-05T06:02:49.540Z,0
2018-12-05T06:03:50.930Z,0
2018-12-05T06:04:52.322Z,0
2018-12-05T06:05:53.859Z,0
2018-12-05T06:06:55.251Z,0
2018-12-05T06:07:56.642Z,0
2018-12-05T06:08:58.181Z,0
2018-12-05T06:09:59.572Z,0
2018-12-05T06:11:00.963Z,0
2018-12-05T06:12:02.502Z,0
2018-12-05T06:13:04.282Z,0
2018-12-05T06:14:05.795Z,0
2018-12-05T06:15:07.184Z,0
2018-12-05T06:16:08.574Z,0
2018-12-05T06:17:10.111Z,0
2018-12-05T06:18:11.507Z,0
2018-12-05T06:19:12.901Z,0
2018-12-05T06:20:14.438Z,0
2018-12-05T06:21:15.838Z,0
2018-12-05T06:22:17.225Z,0
2018-12-05T06:23:18.762Z,0
2018-12-05T06:24:20.149Z,0
2018-12-05T06:25:21.921Z,0
2018-12-05T06:26:23.696Z,0
2018-12-05T06:27:25.100Z,0
2018-12-05T06:28:26.575Z,0
2018-12-05T06:29:27.967Z,0
2018-12-05T06:30:29.455Z,0
2018-12-05T06:31:30.852Z,0
2018-12-05T06:32:32.336Z,0
2018-12-05T06:33:33.733Z,0
2018-12-05T06:34:35.220Z,0
2018-12-05T06:35:36.618Z,0
2018-12-05T06:36:38.103Z,0
2018-12-05T06:37:39.449Z,0
2018-12-05T06:38:40.995Z,0
2018-12-05T06:39:42.387Z,0
2018-12-05T06:40:44.279Z,0
2018-12-05T06:41:45.634Z,0
2018-12-05T06:42:47.153Z,0
2018-12-05T06:43:48.538Z,0
2018-12-05T06:44:50.034Z,0
2018-12-05T06:45:51.422Z,0
2018-12-05T06:46:52.829Z,0
2018-12-05T06:47:54.738Z,0
2018-12-05T06:48:56.131Z,0
2018-12-05T06:49:57.524Z,4
2018-12-05T06:50:59.081Z,0
2018-12-05T06:52:00.472Z,0
2018-12-05T06:53:01.963Z,4
2018-12-05T06:54:03.523Z,4
2018-12-05T06:55:05.050Z,0
2018-12-05T06:56:06.450Z,4
2018-12-05T06:57:07.934Z,4
2018-12-05T06:58:09.324Z,4
2018-12-05T06:59:11.198Z,4
2018-12-05T07:00:12.588Z,4
2018-12-05T07:01:14.105Z,8
2018-12-05T07:02:15.493Z,4
2018-12-05T07:03:16.894Z,8
2018-12-05T07:04:18.426Z,8
2018-12-05T07:05:19.855Z,8
2018-12-05T07:06:21.246Z,12
2018-12-05T07:07:22.748Z,12
2018-12-05T07:08:24.143Z,12
2018-12-05T07:09:25.536Z,16
2018-12-05T07:10:27.080Z,16
2018-12-05T07:11:28.466Z,20
2018-12-05T07:12:29.861Z,28
2018-12-05T07:13:31.387Z,28
2018-12-05T07:14:32.779Z,32
2018-12-05T07:15:34.171Z,32
2018-12-05T07:16:35.715Z,36
2018-12-05T07:17:37.105Z,36
2018-12-05T07:18:38.537Z,40
2018-12-05T07:19:40.031Z,40
2018-12-05T07:20:41.427Z,44
2018-12-05T07:21:42.826Z,44
2018-12-05T07:22:44.370Z,48
2018-12-05T07:23:45.759Z,48
2018-12-05T07:24:47.152Z,52
2018-12-05T07:25:48.703Z,52
2018-12-05T07:26:50.098Z,56
2018-12-05T07:27:51.488Z,64
2018-12-05T07:28:52.994Z,64
2018-12-05T07:29:54.392Z,68
2018-12-05T07:30:55.787Z,72
2018-12-05T07:31:57.699Z,80
2018-12-05T07:32:59.094Z,84
2018-12-05T07:34:00.604Z,92
2018-12-05T07:35:01.999Z,104
2018-12-05T07:36:03.489Z,112
2018-12-05T07:37:04.884Z,124
2018-12-05T07:38:06.375Z,128
2018-12-05T07:39:07.771Z,136
2018-12-05T07:40:09.251Z,140
2018-12-05T07:41:10.648Z,152
2018-12-05T07:42:12.041Z,156
2018-12-05T07:43:13.573Z,156
2018-12-05T07:44:14.968Z,164
2018-12-05T07:45:16.368Z,172
2018-12-05T07:46:17.793Z,176
2018-12-05T07:47:19.188Z,180
2018-12-05T07:48:20.582Z,188
2018-12-05T07:49:22.217Z,196
2018-12-05T07:50:23.610Z,200
2018-12-05T07:51:25.096Z,200
2018-12-05T07:52:26.524Z,192
2018-12-05T07:53:28.182Z,196
2018-12-05T07:54:29.581Z,196
2018-12-05T07:55:31.065Z,200
2018-12-05T07:56:32.502Z,204
2018-12-05T07:57:34.288Z,208
2018-12-05T07:58:35.686Z,220
2018-12-05T07:59:37.234Z,224
2018-12-05T08:00:38.668Z,224
2018-12-05T08:01:40.187Z,228
2018-12-05T08:02:41.590Z,228
2018-12-05T08:03:42.977Z,232
2018-12-05T08:04:44.436Z,236
2018-12-05T08:05:45.840Z,244
2018-12-05T08:06:47.262Z,248
2018-12-05T08:07:48.962Z,248
2018-12-05T08:08:50.131Z,256
2018-12-05T08:09:51.637Z,264
2018-12-05T08:10:53.035Z,264
2018-12-05T08:11:54.523Z,264
2018-12-05T08:12:55.917Z,264
2018-12-05T08:13:57.312Z,260
2018-12-05T08:14:58.840Z,264
2018-12-05T08:16:00.238Z,264
2018-12-05T08:17:01.630Z,272
2018-12-05T08:18:03.161Z,272
2018-12-05T08:19:04.588Z,276
2018-12-05T08:20:06.044Z,280
2018-12-05T08:21:07.437Z,280
2018-12-05T08:22:08.931Z,276
2018-12-05T08:23:10.355Z,268
2018-12-05T08:24:11.805Z,260
2018-12-05T08:25:13.197Z,264
2018-12-05T08:26:14.684Z,272
2018-12-05T08:27:16.081Z,276
2018-12-05T08:28:17.565Z,276
2018-12-05T08:29:18.960Z,272
2018-12-05T08:30:20.447Z,280
2018-12-05T08:31:21.841Z,288
2018-12-05T08:32:23.327Z,304
2018-12-05T08:33:24.724Z,312
2018-12-05T08:34:26.208Z,324
2018-12-05T08:35:27.608Z,328
2018-12-05T08:36:29.088Z,336
2018-12-05T08:37:30.490Z,356
2018-12-05T08:38:31.884Z,372
2018-12-05T08:39:33.410Z,384
2018-12-05T08:40:34.817Z,400
2018-12-05T08:41:36.203Z,404
2018-12-05T08:42:37.733Z,408
2018-12-05T08:43:39.126Z,424
2018-12-05T08:44:40.614Z,432
2018-12-05T08:45:42.009Z,436
2018-12-05T08:46:43.494Z,452
2018-12-05T08:47:44.890Z,464
2018-12-05T08:48:46.285Z,480
2018-12-05T08:49:47.814Z,488
2018-12-05T08:50:49.213Z,500
2018-12-05T08:51:50.613Z,504
2018-12-05T08:52:52.137Z,508
2018-12-05T08:53:53.533Z,512
2018-12-05T08:54:54.934Z,520
2018-12-05T08:55:56.462Z,524
2018-12-05T08:56:57.855Z,528
2018-12-05T08:57:59.254Z,532
2018-12-05T08:59:00.784Z,540
2018-12-05T09:00:02.179Z,552
2018-12-05T09:01:03.662Z,560
2018-12-05T09:02:05.062Z,568
2018-12-05T09:03:06.460Z,584
2018-12-05T09:04:07.984Z,608
2018-12-05T09:05:09.383Z,620
2018-12-05T09:06:10.785Z,640
2018-12-05T09:07:12.386Z,652
2018-12-05T09:08:13.662Z,672
2018-12-05T09:09:15.058Z,692
2018-12-05T09:10:16.624Z,708
2018-12-05T09:11:18.018Z,712
2018-12-05T09:12:19.421Z,736
2018-12-05T09:13:20.954Z,764
2018-12-05T09:14:28.609Z,768
2018-12-05T09:15:23.828Z,896
2018-12-05T09:16:25.232Z,1108
2018-12-05T09:17:26.707Z,1200
2018-12-05T09:18:28.109Z,1252
2018-12-05T09:19:29.510Z,1248
2018-12-05T09:20:31.028Z,1252
2018-12-05T09:21:32.432Z,1248
2018-12-05T09:22:40.922Z,1216
2018-12-05T09:23:35.351Z,1172
2018-12-05T09:24:36.748Z,1180
2018-12-05T09:25:38.441Z,1236
2018-12-05T09:26:39.841Z,1244
2018-12-05T09:27:41.322Z,1224
2018-12-05T09:28:42.716Z,1288
2018-12-05T09:29:44.116Z,1412
2018-12-05T09:30:45.640Z,1480
2018-12-05T09:31:47.040Z,1500
2018-12-05T09:32:48.444Z,1448
2018-12-05T09:33:49.960Z,1416
2018-12-05T09:34:51.415Z,1404
2018-12-05T09:35:52.810Z,1356
2018-12-05T09:36:54.285Z,1304
2018-12-05T09:37:55.693Z,1252
2018-12-05T09:38:57.092Z,1184
2018-12-05T09:39:58.611Z,1108
2018-12-05T09:41:00.011Z,1044
2018-12-05T09:42:01.486Z,1012
2018-12-05T09:43:02.883Z,1008
2018-12-05T09:44:04.364Z,1020
2018-12-05T09:45:05.764Z,1036
2018-12-05T09:46:07.251Z,1076
2018-12-05T09:47:15.641Z,1180
2018-12-05T09:48:10.128Z,1332
2018-12-05T09:49:11.526Z,1384
2018-12-05T09:50:13.002Z,1360
2018-12-05T09:51:14.415Z,1300
2018-12-05T09:52:15.889Z,1260
2018-12-05T09:53:17.285Z,1236
2018-12-05T09:54:18.682Z,1260
2018-12-05T09:55:20.309Z,1300
2018-12-05T09:56:21.711Z,1360
2018-12-05T09:57:23.106Z,1400
2018-12-05T09:58:24.737Z,1420
2018-12-05T09:59:26.138Z,1408
2018-12-05T10:00:27.617Z,1420
2018-12-05T10:01:29.021Z,1444
2018-12-05T10:02:30.500Z,1476
2018-12-05T10:03:31.900Z,1488
2018-12-05T10:04:33.310Z,1496
2018-12-05T10:05:34.847Z,1448
2018-12-05T10:06:36.248Z,1364
2018-12-05T10:07:37.648Z,1316
2018-12-05T10:08:39.140Z,1276
2018-12-05T10:09:40.559Z,1248
2018-12-05T10:10:41.956Z,1244
2018-12-05T10:11:43.469Z,1252
2018-12-05T10:12:44.868Z,1256
2018-12-05T10:13:46.275Z,1252
2018-12-05T10:14:47.783Z,1264
2018-12-05T10:15:49.190Z,1316
2018-12-05T10:16:50.593Z,1376
2018-12-05T10:17:56.047Z,1416
2018-12-05T10:18:58.764Z,1400
2018-12-05T10:20:00.164Z,1368
2018-12-05T10:21:01.754Z,1332
2018-12-05T10:22:03.147Z,1316
2018-12-05T10:23:04.624Z,1296
2018-12-05T10:24:06.032Z,1284
2018-12-05T10:25:07.513Z,1260
2018-12-05T10:26:08.912Z,1256
2018-12-05T10:27:10.393Z,1296
2018-12-05T10:28:11.843Z,1364
2018-12-05T10:29:13.242Z,1448
2018-12-05T10:30:15.096Z,1520
2018-12-05T10:31:16.459Z,1524
2018-12-05T10:32:17.868Z,1496
2018-12-05T10:33:19.455Z,1484
2018-12-05T10:34:21.138Z,1460
2018-12-05T10:35:22.539Z,1500
2018-12-05T10:36:24.179Z,1548
2018-12-05T10:37:25.584Z,1596
2018-12-05T10:38:27.060Z,1612
2018-12-05T10:39:28.460Z,1636
2018-12-05T10:40:29.941Z,1676
2018-12-05T10:41:31.349Z,1704
2018-12-05T10:42:33.026Z,1740
2018-12-05T10:43:34.735Z,1756
2018-12-05T10:44:36.322Z,1748
2018-12-05T10:45:37.715Z,1724
2018-12-05T10:46:39.224Z,1664
2018-12-05T10:47:40.625Z,1604
2018-12-05T10:48:42.075Z,1564
2018-12-05T10:49:43.479Z,1536
2018-12-05T10:50:44.955Z,1476
2018-12-05T10:51:46.355Z,1476
2018-12-05T10:52:47.837Z,1496
2018-12-05T10:53:49.247Z,1536
2018-12-05T10:54:50.718Z,1524
2018-12-05T10:55:52.119Z,1520
2018-12-05T10:56:53.602Z,1488
2018-12-05T10:57:54.998Z,1472
2018-12-05T10:58:56.482Z,1468
2018-12-05T10:59:57.888Z,1448
2018-12-05T11:00:59.363Z,1440
2018-12-05T11:02:01.136Z,1400
2018-12-05T11:03:02.655Z,1352
2018-12-05T11:04:04.073Z,1324
2018-12-05T11:05:05.552Z,1296
2018-12-05T11:06:06.932Z,1276
2018-12-05T11:07:08.412Z,1240
2018-12-05T11:08:10.101Z,1196
2018-12-05T11:09:11.715Z,1128
2018-12-05T11:10:13.116Z,1064
2018-12-05T11:11:14.583Z,992
2018-12-05T11:12:15.991Z,932
2018-12-05T11:13:17.434Z,884
2018-12-05T11:14:18.833Z,848
2018-12-05T11:15:20.235Z,832
2018-12-05T11:16:21.782Z,816
2018-12-05T11:17:23.178Z,808
2018-12-05T11:18:24.578Z,792
2018-12-05T11:19:26.110Z,780
2018-12-05T11:20:27.519Z,772
2018-12-05T11:21:28.916Z,748
2018-12-05T11:22:30.440Z,724
2018-12-05T11:23:31.845Z,700
2018-12-05T11:24:33.242Z,676
2018-12-05T11:25:34.751Z,672
2018-12-05T11:26:36.147Z,656
2018-12-05T11:27:37.630Z,644
2018-12-05T11:28:39.035Z,620
2018-12-05T11:29:40.510Z,604
2018-12-05T11:30:41.907Z,624
2018-12-05T11:31:43.327Z,636
2018-12-05T11:32:44.836Z,608
2018-12-05T11:33:46.237Z,572
2018-12-05T11:34:47.631Z,556
2018-12-05T11:35:49.152Z,584
2018-12-05T11:36:50.553Z,596
2018-12-05T11:37:51.949Z,600
2018-12-05T11:38:53.865Z,592
2018-12-05T11:39:55.276Z,576
2018-12-05T11:40:56.670Z,564
2018-12-05T11:41:58.204Z,556
2018-12-05T11:42:59.604Z,552
2018-12-05T11:44:01.004Z,552
2018-12-05T11:45:02.528Z,592
2018-12-05T11:46:03.923Z,620
2018-12-05T11:47:05.413Z,632
2018-12-05T11:48:06.806Z,652
2018-12-05T11:49:08.289Z,676
2018-12-05T11:50:09.687Z,700
2018-12-05T11:51:11.170Z,704
2018-12-05T11:52:12.566Z,720
2018-12-05T11:53:14.051Z,736
2018-12-05T11:54:15.832Z,760
2018-12-05T11:55:17.419Z,796
2018-12-05T11:56:18.748Z,804
2018-12-05T11:57:20.542Z,796
2018-12-05T11:58:21.970Z,824
2018-12-05T11:59:23.367Z,848
2018-12-05T12:00:24.849Z,876
2018-12-05T12:01:26.345Z,844
2018-12-05T12:02:27.742Z,800
2018-12-05T12:03:29.280Z,776
2018-12-05T12:04:30.701Z,776
2018-12-05T12:05:32.158Z,808
2018-12-05T12:06:33.768Z,832
2018-12-05T12:07:35.168Z,928
2018-12-05T12:08:36.575Z,1008
2018-12-05T12:09:38.126Z,1024
2018-12-05T12:10:39.523Z,1056
2018-12-05T12:11:40.930Z,1044
2018-12-05T12:12:42.440Z,992
2018-12-05T12:13:43.840Z,992
2018-12-05T12:14:45.326Z,1004
2018-12-05T12:15:47.104Z,1044
2018-12-05T12:16:48.511Z,1084
2018-12-05T12:17:50.061Z,1072
2018-12-05T12:18:51.471Z,1060
2018-12-05T12:19:52.870Z,1016
2018-12-05T12:20:54.373Z,972
2018-12-05T12:21:55.785Z,940
2018-12-05T12:22:57.256Z,940
2018-12-05T12:23:59.042Z,976
2018-12-05T12:25:00.548Z,1028
2018-12-05T12:26:01.967Z,1056
2018-12-05T12:27:03.358Z,1092
2018-12-05T12:28:04.871Z,1156
2018-12-05T12:29:06.271Z,1184
2018-12-05T12:30:07.673Z,1184
2018-12-05T12:31:09.193Z,1152
2018-12-05T12:32:10.596Z,1088
2018-12-05T12:33:12.073Z,1052
2018-12-05T12:34:13.473Z,1040
2018-12-05T12:35:14.954Z,1032
2018-12-05T12:36:16.352Z,1004
2018-12-05T12:37:17.834Z,928
2018-12-05T12:38:19.239Z,836
2018-12-05T12:39:20.714Z,724
2018-12-05T12:40:22.196Z,672
2018-12-05T12:41:23.603Z,680
2018-12-05T12:42:25.035Z,700
2018-12-05T12:43:26.436Z,736
2018-12-05T12:44:27.832Z,780
2018-12-05T12:45:29.358Z,832
2018-12-05T12:46:30.757Z,876
2018-12-05T12:47:32.164Z,856
2018-12-05T12:48:33.697Z,808
2018-12-05T12:49:35.095Z,752
2018-12-05T12:50:36.492Z,676
2018-12-05T12:51:38.076Z,648
2018-12-05T12:52:39.468Z,644
2018-12-05T12:53:41.088Z,664
2018-12-05T12:54:42.484Z,688
2018-12-05T12:55:43.963Z,676
2018-12-05T12:56:45.362Z,652
2018-12-05T12:57:46.849Z,624
2018-12-05T12:58:48.251Z,596
2018-12-05T12:59:49.729Z,580
2018-12-05T13:00:51.138Z,588
2018-12-05T13:01:52.546Z,608
2018-12-05T13:02:54.050Z,660
2018-12-05T13:03:55.445Z,688
2018-12-05T13:04:56.844Z,696
2018-12-05T13:05:58.366Z,700
2018-12-05T13:06:59.773Z,680
2018-12-05T13:08:01.175Z,664
2018-12-05T13:09:02.698Z,664
2018-12-05T13:10:04.099Z,692
2018-12-05T13:11:05.495Z,716
2018-12-05T13:12:07.016Z,700
2018-12-05T13:13:08.414Z,680
2018-12-05T13:14:09.897Z,660
2018-12-05T13:15:11.293Z,648
2018-12-05T13:16:12.778Z,628
2018-12-05T13:17:14.178Z,616
2018-12-05T13:18:15.659Z,584
2018-12-05T13:19:17.064Z,552
2018-12-05T13:20:18.539Z,540
2018-12-05T13:21:19.952Z,556
2018-12-05T13:22:21.346Z,572
2018-12-05T13:23:22.871Z,576
2018-12-05T13:24:24.268Z,564
2018-12-05T13:25:25.744Z,552
2018-12-05T13:26:27.183Z,536
2018-12-05T13:27:28.587Z,512
2018-12-05T13:28:29.988Z,496
2018-12-05T13:29:31.497Z,488
2018-12-05T13:30:32.900Z,480
2018-12-05T13:31:34.310Z,472
2018-12-05T13:32:35.817Z,456
2018-12-05T13:33:37.309Z,448
2018-12-05T13:34:38.709Z,444
2018-12-05T13:35:40.109Z,432
2018-12-05T13:36:41.586Z,420
2018-12-05T13:37:42.991Z,396
2018-12-05T13:38:44.462Z,372
2018-12-05T13:39:45.867Z,344
2018-12-05T13:40:47.343Z,320
2018-12-05T13:41:48.746Z,296
2018-12-05T13:42:50.226Z,280
2018-12-05T13:43:51.629Z,280
2018-12-05T13:44:53.107Z,288
2018-12-05T13:45:54.511Z,296
2018-12-05T13:46:55.991Z,300
2018-12-05T13:47:57.408Z,308
2018-12-05T13:48:58.870Z,324
2018-12-05T13:50:00.273Z,348
2018-12-05T13:51:01.751Z,368
2018-12-05T13:52:03.171Z,368
2018-12-05T13:53:04.552Z,352
2018-12-05T13:54:06.074Z,332
2018-12-05T13:55:07.470Z,320
2018-12-05T13:56:08.869Z,328
2018-12-05T13:57:10.393Z,344
2018-12-05T13:58:11.792Z,356
2018-12-05T13:59:13.196Z,384
2018-12-05T14:00:14.716Z,404
2018-12-05T14:01:16.112Z,424
2018-12-05T14:02:17.515Z,424
2018-12-05T14:03:19.035Z,416
2018-12-05T14:04:20.436Z,392
2018-12-05T14:05:21.919Z,368
2018-12-05T14:06:23.316Z,352
2018-12-05T14:07:24.799Z,332
2018-12-05T14:08:26.196Z,332
2018-12-05T14:09:27.593Z,332
2018-12-05T14:10:29.131Z,316
2018-12-05T14:11:30.519Z,296
2018-12-05T14:12:31.917Z,284
2018-12-05T14:13:33.437Z,272
2018-12-05T14:14:34.843Z,268
2018-12-05T14:15:36.237Z,260
2018-12-05T14:16:37.763Z,252
2018-12-05T14:17:39.164Z,252
2018-12-05T14:18:40.563Z,252
2018-12-05T14:19:42.086Z,256
2018-12-05T14:20:43.495Z,260
2018-12-05T14:21:44.923Z,264
2018-12-05T14:22:46.407Z,268
2018-12-05T14:23:47.813Z,264
2018-12-05T14:24:49.213Z,256
2018-12-05T14:25:50.729Z,252
2018-12-05T14:26:52.586Z,236
2018-12-05T14:27:53.977Z,212
2018-12-05T14:28:55.456Z,192
2018-12-05T14:29:56.851Z,176
2018-12-05T14:30:58.252Z,164
2018-12-05T14:31:59.777Z,152